Terminal Aerodrome Forecast
Issued by NWS Shreveport, LA

Home | Current Version | Previous Version | Text Only | Print | Product List | Glossary On
Versions: 1 2 3 4 5 6 7 8 9 10 11 12
000
FTUS44 KSHV 122330
TAFGGG
TAF
KGGG 122330Z 1300/1324 31004KT P6SM SKC
     FM130200 00000KT P6SM SKC
     FM131500 21010KT P6SM SKC
     FM131700 22015G21KT P6SM SKC=

USA.gov is the U.S. government's official web portal to all federal, state and local government web resources and services.